Terminal Aerodrome Forecast
Issued by NWS

Home | Current Version | Previous Version | Text Only | Print | Product List | Glossary On
Versions: 1 2 3 4 5 6 7 8 9 10 11 12 13
915
FTUS46 KSEW 091120
TAFCLM
TAF
KCLM 091120Z 0912/1012 VRB04KT 2SM BR SCT002
      TEMPO 0912/0914 1SM BR VV002
     FM091600 VRB04KT P6SM BKN250=

USA.gov is the U.S. government's official web portal to all federal, state and local government web resources and services.